Latest Weather Observations for Christmas Island

IDW60801

Issued at 10:04 pm WST Sunday 19 February 2017 (issued every 30 minutes, with the page automatically refreshed every 10 minutes)

About weather observations | Map of weather stations | Latest weather observations for WA | Other Formats
Station Details ID: 200790 Name: CHRISTMAS ISLAND AERO Lat: -10.45 Lon: 105.69 Height: 261.0 m
Data from the previous 72 hours. | See also: Recent months at Christmas Island
Date/Time
WST
Temp
°C
App
Temp
°C
Dew
Point
°C
Rel
Hum
%
Delta-T
°C
Wind Press
QNH
hPa
Press
MSL
hPa
Rain since
9am
mm
Dir  Spd
km/h
Gust
km/h
Spd
kts
Gust
kts
19/10:00pm 22.7 26.0 21.5 93 0.8 W 6 7 3 4 1011.9 1010.3 0.0
19/09:30pm 22.8 27.2 21.4 92 0.9 CALM 0 0 0 0 1011.5 - 0.0
19/09:00pm 23.0 27.5 21.5 91 1.0 CALM 0 0 0 0 1011.2 - 0.0
19/08:30pm 23.5 26.9 21.6 89 1.3 W 6 7 3 4 1010.9 - 0.0
19/08:00pm 24.3 28.4 21.6 85 1.8 W 2 6 1 3 1010.5 - 0.0
19/07:30pm 25.2 28.4 21.3 79 2.6 W 6 11 3 6 1010.2 - 0.0
19/07:00pm 25.9 28.4 21.1 75 3.2 W 9 17 5 9 1009.7 1008.1 0.0
19/06:30pm 26.7 28.7 20.8 70 3.9 WNW 11 20 6 11 1009.6 - 0.0
19/06:00pm 27.8 30.1 20.6 65 4.8 W 9 17 5 9 1009.6 - 0.0
19/05:30pm 27.5 29.5 20.8 67 4.5 WNW 11 17 6 9 1009.7 - 0.0
19/05:00pm 28.0 29.6 20.8 65 4.8 NW 13 19 7 10 1009.7 - 0.0
19/04:30pm 27.7 29.8 21.0 67 4.5 WNW 11 19 6 10 1009.9 - 0.0
19/04:00pm 27.8 30.0 21.1 67 4.5 NW 11 20 6 11 1010.2 1008.6 0.0
19/03:30pm 28.5 30.3 21.2 64 4.9 WNW 13 22 7 12 1010.5 - 0.0
19/03:00pm 28.1 31.3 21.6 68 4.4 ENE 7 11 4 6 1010.7 - 0.0
19/02:30pm 27.1 29.0 20.6 67 4.3 NE 11 15 6 8 1011.0 - 0.0
19/02:00pm 27.2 29.4 21.9 73 3.6 ENE 13 19 7 10 1011.2 - 0.0
19/01:30pm 27.4 29.8 21.6 70 3.9 E 11 15 6 8 1011.6 - 0.0
19/01:00pm 27.4 30.7 21.8 71 3.8 NE 7 15 4 8 1012.1 1010.4 0.0
19/12:30pm 27.7 30.8 22.1 71 3.8 NNE 9 15 5 8 1012.4 - 0.0
19/12:00pm 27.8 31.0 21.7 69 4.1 E 7 11 4 6 1012.6 - 0.0
19/11:30am 27.9 30.8 21.7 69 4.2 NE 9 15 5 8 1012.9 - 0.0
19/11:00am 27.8 30.3 21.1 67 4.5 NW 9 28 5 15 1012.9 - 0.0
19/10:30am 27.2 29.5 20.7 67 4.3 WSW 9 15 5 8 1013.0 - 0.0
19/10:00am 26.6 28.9 21.4 73 3.5 SW 11 17 6 9 1013.2 1011.6 0.4
19/09:30am 26.3 28.7 21.5 75 3.2 SW 11 22 6 12 1013.2 - 0.4
19/09:00am 25.9 28.4 21.7 77 2.8 WSW 11 19 6 10 1013.2 - 0.4
19/08:30am 25.5 28.4 21.8 80 2.5 WSW 9 15 5 8 1013.1 - 0.4
19/08:00am 24.5 27.3 21.5 83 2.0 WSW 9 15 5 8 1012.7 - 0.4
19/07:30am 23.4 26.1 21.4 88 1.3 WSW 9 13 5 7 1012.5 - 0.4
19/07:00am 22.9 25.7 21.5 92 0.9 WSW 9 15 5 8 1012.2 1010.5 0.4
19/06:30am 23.0 26.0 21.3 90 1.1 WSW 7 11 4 6 1012.1 - 0.2
19/06:00am 23.2 25.8 21.2 88 1.3 WSW 9 13 5 7 1011.9 - 0.2
19/05:30am 23.1 25.8 21.4 90 1.1 WSW 9 13 5 7 1011.9 - 0.2
19/05:00am 22.8 25.5 21.4 92 0.9 W 9 11 5 6 1011.9 - 0.2
19/04:30am 22.6 25.7 21.5 93 0.7 W 7 11 4 6 1011.7 - 0.2
19/04:00am 22.3 25.3 21.2 93 0.7 W 7 11 4 6 1011.7 1010.1 0.2
19/03:30am 22.6 25.7 21.4 93 0.8 W 7 11 4 6 1011.8 - 0.2
19/03:00am 22.7 25.8 21.5 93 0.8 WSW 7 13 4 7 1012.4 - 0.2
19/02:30am 22.7 25.8 21.5 93 0.8 WSW 7 9 4 5 1012.7 - 0.2
19/02:00am 22.8 26.0 21.6 93 0.8 WSW 7 11 4 6 1012.9 - 0.2
19/01:30am 22.7 25.9 21.6 93 0.7 WSW 7 9 4 5 1013.2 - 0.2
19/01:00am 22.4 25.7 21.5 95 0.6 WSW 6 7 3 4 1013.4 1011.8 0.2
19/12:30am 23.0 26.5 21.8 93 0.8 WSW 6 7 3 4 1013.6 - 0.2
19/12:00am 23.1 26.6 22.1 94 0.7 WSW 7 9 4 5 1013.9 - 0.2
 
Date/Time
WST
Temp
°C
App
Temp
°C
Dew
Point
°C
Rel
Hum
%
Delta-T
°C
Wind Press
QNH
hPa
Press
MSL
hPa
Rain since
9am
mm
Dir  Spd
km/h
Gust
km/h
Spd
kts
Gust
kts
18/11:30pm 22.5 25.9 21.7 95 0.5 SW 6 6 3 3 1014.1 - 0.2
18/11:00pm 22.4 25.7 21.5 95 0.6 SW 6 7 3 4 1013.9 - 0.2
18/10:30pm 22.8 26.1 21.8 94 0.7 SW 7 7 4 4 1013.6 - 0.2
18/10:00pm 22.8 26.3 21.8 94 0.7 SSE 6 9 3 5 1013.5 1011.9 0.2
18/09:30pm 23.2 26.8 22.0 93 0.8 SSE 6 7 3 4 1013.2 - 0.2
18/09:00pm 23.3 27.0 22.3 94 0.7 SSE 6 7 3 4 1013.1 - 0.2
18/08:30pm 23.4 28.2 22.2 93 0.8 CALM 0 0 0 0 1012.8 - 0.2
18/08:00pm 23.7 28.6 22.4 92 0.9 CALM 0 0 0 0 1012.6 - 0.2
18/07:30pm 24.6 29.7 22.7 89 1.3 CALM 0 0 0 0 1012.3 - 0.2
18/07:00pm 25.4 30.0 22.5 84 2.0 SSE 2 6 1 3 1011.9 1010.3 0.2
18/06:30pm 25.7 30.8 22.6 83 2.1 CALM 0 6 0 3 1011.7 - 0.2
18/06:00pm 25.5 29.5 22.1 81 2.3 SSE 4 7 2 4 1011.7 - 0.2
18/05:30pm 25.7 29.4 22.2 81 2.4 SSE 6 9 3 5 1011.6 - 0.2
18/05:00pm 26.0 29.1 22.2 79 2.6 SE 9 13 5 7 1011.6 - 0.2
18/04:30pm 26.1 29.5 22.0 78 2.8 S 7 15 4 8 1011.9 - 0.2
18/04:28pm 26.1 29.7 22.3 79 2.6 S 7 15 4 8 1011.9 - 0.2
18/04:02pm 25.9 29.5 22.4 81 2.4 SE 7 11 4 6 1012.1 - 0.2
18/04:00pm 26.1 29.3 22.4 80 2.5 SE 9 11 5 6 1012.1 1010.4 0.2
18/03:31pm 26.0 29.9 22.9 83 2.1 S 7 11 4 6 1012.1 - 0.2
18/03:30pm 26.1 30.0 23.0 83 2.1 S 7 11 4 6 1012.1 - 0.2
18/03:02pm 26.7 30.2 22.8 79 2.7 SE 9 13 5 7 1012.5 - 0.2
18/03:00pm 26.2 29.5 22.5 80 2.5 SSE 9 13 5 7 1012.5 - 0.2
18/02:30pm 25.9 30.1 23.1 84 1.9 S 6 9 3 5 1013.0 - 0.2
18/02:00pm 25.6 29.6 22.7 84 2.0 S 6 9 3 5 1013.4 - 0.0
18/01:30pm 25.6 29.5 23.0 85 1.8 S 7 11 4 6 1013.7 - 0.0
18/01:00pm 26.5 29.8 21.8 75 3.2 SE 7 11 4 6 1013.9 1012.3 0.0
18/12:30pm 26.6 29.7 22.2 77 3.0 SE 9 13 5 7 1014.1 - 0.0
18/12:00pm 26.3 29.4 22.2 78 2.8 S 9 15 5 8 1014.2 - 0.0
18/11:30am 26.1 28.9 21.6 76 3.0 SE 9 15 5 8 1014.3 - 0.0
18/11:00am 26.5 30.0 22.1 77 3.0 SSE 7 15 4 8 1014.6 - 0.0
18/10:30am 26.2 30.7 22.2 78 2.7 SSW 2 7 1 4 1014.6 - 0.0
18/10:00am 26.9 28.9 21.5 72 3.6 SE 13 20 7 11 1014.6 1013.0 0.4
18/09:30am 26.7 29.1 21.5 73 3.5 SSE 11 19 6 10 1014.5 - 0.4
18/09:00am 26.1 29.1 22.0 78 2.8 SSW 9 17 5 9 - - 0.4
18/08:30am 25.6 29.3 22.2 81 2.3 S 6 9 3 5 1014.0 - 0.4
18/08:00am 24.2 28.1 21.8 86 1.6 S 4 7 2 4 1013.6 - 0.4
18/07:30am 23.7 27.1 21.6 88 1.4 S 6 7 3 4 1013.4 - 0.4
18/07:00am 23.3 26.7 21.7 91 1.1 S 6 7 3 4 1013.3 1011.7 0.4
18/06:30am 22.8 26.2 21.6 93 0.8 S 6 7 3 4 1013.1 - 0.4
18/06:00am 22.8 26.6 21.6 93 0.8 S 4 6 2 3 1013.0 - 0.4
18/05:30am 22.7 27.2 21.6 93 0.7 CALM 0 0 0 0 1012.9 - 0.4
18/05:00am 22.9 27.5 21.7 93 0.8 CALM 0 0 0 0 1012.7 - 0.4
18/04:30am 22.9 27.5 21.7 93 0.8 CALM 0 0 0 0 1012.7 - 0.4
18/04:00am 23.2 27.9 21.9 92 0.9 CALM 0 0 0 0 1012.7 1011.0 0.4
18/03:30am 23.6 27.1 21.8 90 1.2 S 6 7 3 4 1012.9 - 0.4
18/03:00am 23.5 27.5 22.0 91 1.0 S 4 6 2 3 1012.9 - 0.4
18/02:30am 23.6 27.2 22.0 91 1.1 S 6 6 3 3 1013.2 - 0.4
18/02:00am 23.6 28.5 22.3 92 0.9 CALM 0 0 0 0 1013.5 - 0.4
18/01:30am 23.6 28.4 22.1 91 1.0 CALM 0 0 0 0 1013.8 - 0.4
18/01:00am 23.6 28.4 22.1 91 1.0 CALM 0 0 0 0 1014.1 1012.5 0.4
18/12:30am 23.8 28.5 22.0 90 1.2 CALM 0 0 0 0 1014.2 - 0.4
18/12:00am 23.8 28.6 22.2 91 1.1 CALM 0 0 0 0 1014.6 - 0.4
 
Date/Time
WST
Temp
°C
App
Temp
°C
Dew
Point
°C
Rel
Hum
%
Delta-T
°C
Wind Press
QNH
hPa
Press
MSL
hPa
Rain since
9am
mm
Dir  Spd
km/h
Gust
km/h
Spd
kts
Gust
kts
17/11:30pm 23.8 28.5 21.9 89 1.3 CALM 0 0 0 0 1014.6 - 0.4
17/11:00pm 23.8 27.3 21.9 89 1.3 S 6 7 3 4 1014.5 - 0.4
17/10:30pm 23.9 27.4 21.8 88 1.4 S 6 7 3 4 1014.4 - 0.4
17/10:00pm 23.9 27.2 21.8 88 1.4 S 7 11 4 6 1014.2 1012.6 0.4
17/09:30pm 24.0 27.8 22.4 91 1.1 SE 6 7 3 4 1014.0 - 0.4
17/09:00pm 24.3 28.1 22.4 89 1.3 S 6 11 3 6 1013.8 - 0.4
17/08:30pm 24.5 28.4 22.6 89 1.3 ESE 6 9 3 5 1013.5 - 0.4
17/08:00pm 24.8 28.7 22.6 87 1.5 ESE 6 9 3 5 1013.2 - 0.4
17/07:30pm 25.0 29.0 22.8 87 1.5 ESE 6 7 3 4 1012.9 - 0.4
17/07:00pm 25.2 28.5 22.5 85 1.8 ESE 9 11 5 6 1012.5 1010.8 0.4
17/06:30pm 25.7 28.9 22.3 81 2.3 ESE 9 13 5 7 1012.2 - 0.4
17/06:00pm 26.0 29.3 22.5 81 2.4 SE 9 15 5 8 1011.9 - 0.4
17/05:30pm 25.7 28.7 22.6 83 2.1 SE 11 15 6 8 1011.9 - 0.4
17/05:00pm 25.6 28.8 22.4 82 2.2 ESE 9 15 5 8 1012.1 - 0.4
17/04:30pm 25.8 28.9 22.9 84 2.0 SE 11 13 6 7 1012.2 - 0.4
17/04:00pm 26.2 29.6 22.7 81 2.4 SE 9 13 5 7 1012.4 1010.7 0.4
17/03:50pm 25.9 29.2 22.5 81 2.3 SE 9 13 5 7 1012.5 - 0.4
17/03:30pm 25.0 28.7 22.6 86 1.6 ESE 7 9 4 5 1012.6 - 0.4
17/03:14pm 24.9 28.9 22.8 88 1.4 S 6 9 3 5 1012.7 - 0.4
17/03:00pm 25.4 29.4 22.8 85 1.8 SSE 6 9 3 5 1012.7 - 0.4
17/02:30pm 26.3 30.5 23.1 82 2.2 S 6 13 3 7 1012.7 - 0.4
17/02:00pm 25.4 29.6 23.1 87 1.6 SE 6 11 3 6 1013.2 - 0.4
17/01:30pm 26.4 30.0 22.0 77 3.0 SE 6 11 3 6 1013.4 - 0.4
17/01:00pm 26.8 30.1 21.9 74 3.3 S 7 11 4 6 1013.9 1012.3 0.4
17/12:30pm 26.6 29.4 21.5 73 3.4 SSE 9 19 5 10 1014.0 - 0.4
17/12:00pm 26.5 29.7 21.6 74 3.3 S 7 13 4 7 1014.4 - 0.4
17/11:30am 26.6 30.2 22.3 77 2.9 SW 7 11 4 6 1014.5 - 0.4
17/11:00am 25.0 28.9 22.6 86 1.6 SW 6 9 3 5 1014.8 - 0.4
17/10:46am 25.1 29.3 23.5 91 1.1 SW 7 9 4 5 1014.8 - 0.4
17/10:30am 24.6 27.9 22.5 88 1.4 SSW 9 17 5 9 1015.0 - 0.2
17/10:26am 25.0 28.7 22.6 86 1.6 S 7 17 4 9 1015.0 - 0.2
17/10:00am 26.2 29.6 21.6 76 3.1 S 6 11 3 6 1014.9 1013.3 0.0
17/09:30am 26.4 30.1 21.5 74 3.3 S 4 9 2 5 1014.8 - 0.0
17/09:00am 25.6 29.5 21.9 80 2.5 WSW 4 7 2 4 1014.6 - 0.0
17/08:30am 24.5 29.4 22.4 88 1.4 CALM 0 0 0 0 1014.4 - 0.0
17/08:00am 23.4 28.2 22.1 92 0.9 CALM 0 0 0 0 1014.1 - 0.0
17/07:30am 22.9 27.6 21.9 94 0.7 CALM 0 0 0 0 1014.0 - 0.0
17/07:00am 22.9 27.5 21.7 93 0.8 CALM 0 0 0 0 1013.8 1012.2 0.0
17/06:30am 22.9 27.5 21.7 93 0.8 CALM 0 4 0 2 1013.6 - 0.0
17/06:00am 22.6 27.2 21.7 95 0.6 CALM 0 0 0 0 1013.3 - 0.0
17/05:30am 22.5 27.0 21.6 95 0.6 CALM 0 0 0 0 1013.2 - 0.0
17/05:00am 22.1 26.5 21.3 95 0.5 CALM 0 0 0 0 1013.1 - 0.0
17/04:30am 22.0 25.6 21.2 95 0.5 WSW 4 7 2 4 1013.1 - 0.0
17/04:00am 21.6 25.7 20.8 95 0.5 CALM 0 4 0 2 1013.0 1011.4 0.0
17/03:30am 21.6 24.5 20.7 95 0.6 WSW 6 6 3 3 1013.2 - 0.0
17/03:00am 21.8 24.7 20.7 93 0.7 WSW 6 6 3 3 1013.4 - 0.0
17/02:30am 21.7 25.4 20.8 95 0.6 WSW 2 7 1 4 1013.6 - 0.0
17/02:00am 21.8 26.0 20.9 95 0.6 CALM 0 6 0 3 1013.7 - 0.0
17/01:30am 21.9 25.0 21.0 95 0.6 WSW 6 6 3 3 1013.9 - 0.0
17/01:00am 22.1 25.9 21.0 93 0.7 WSW 2 6 1 3 1014.1 1012.5 0.0
17/12:30am 22.1 26.3 21.0 93 0.7 CALM 0 0 0 0 1014.3 - 0.0
17/12:00am 22.3 25.8 21.1 93 0.8 WSW 4 7 2 4 1014.7 - 0.0
 
Date/Time
WST
Temp
°C
App
Temp
°C
Dew
Point
°C
Rel
Hum
%
Delta-T
°C
Wind Press
QNH
hPa
Press
MSL
hPa
Rain since
9am
mm
Dir  Spd
km/h
Gust
km/h
Spd
kts
Gust
kts
16/11:30pm 22.6 25.7 21.1 91 1.0 WSW 6 7 3 4 1014.6 - 0.0

Other Formats:

Comma delimited format used in spreadsheet applications
http://www.bom.gov.au/fwo/IDW60801/IDW60801.96995.axf

JavaScript Object Notation format (JSON) in row-major order
http://www.bom.gov.au/fwo/IDW60801/IDW60801.96995.json